עמוד ראשי
METAR-TAF:

METAR-TAF

שדות תעופה :

Errachidia, מרוקו

קו רוחב: 31-56N, קו אורך: 004-24W, גובה: 1034מטר

תצפית מזג אוויר נוכחית

הדו"ח נערך לפני 1 שעות ו 7דקות, בשעה 17:00 UTC
רוח 7קשר מכיוון מערב/דרום-מערב, משתנה בין דרום ו מערב/צפון-מערב
טמפרטורת 43 צלסיוס
לחות 5%
לחץ 1015 hPa
ראות 10 קילומטר או יותר
מעט עננים בגובה 4000רגל

METAR: GMFK 141700Z 24007KT 180V300 9999 FEW040 43/M05 Q1015 NOSIG

זמן: 19:07 (18:07 UTC)

תחזית

הדו"ח נערך לפני 1 שעות ו 7דקות, בשעה 17:00 UTC
תחזית בתוקף מ 14 ב 18 UTC עד 15 ב 24 UTC
רוח 8קשר מכיוון מערב/דרום-מערב
ראות 10 קילומטר או יותר
מעט עננים בגובה 3300רגל

TAF: GMFK 141700Z 1418/1524 24008KT 9999 FEW033

תצפיות ותחזיות מזג אוויר לגבי יותר מ- 4,000 שדות תעופה ברחבי העולם. דוחות METAR ו- TAF.

התחנות הזמינות מסומנות בנקודות צהובות ואדומות על גבי המפה.

העבר את העכבר לנקודה הצבעונית על מנת לראות את שם התחנה.

לאחר מכן, לחץ כדי לראות את תוכן ואת תחזיות מזג האוויר.

כדי לשנות את המפה: לחץ על הכפתורים הירוקים עם הפלוס השחור כדי להתקרב; על הכפתור הירוק עם המקף כדי להתרחק; או בחיצים הירוקים למפות סמוכות.


METAR-TAF: